sensor_id;sensor_type;location;lat;lon;timestamp;pressure;altitude;pressure_sealevel;temperature;humidity
13968;BME280;39536;52.198;9.920;2023-01-29T00:01:42;101983.72;;;0.31;100.00
13968;BME280;39536;52.198;9.920;2023-01-29T00:04:08;101975.72;;;0.47;100.00
13968;BME280;39536;52.198;9.920;2023-01-29T00:06:36;101973.09;;;0.45;100.00
13968;BME280;39536;52.198;9.920;2023-01-29T00:09:03;101975.00;;;0.53;100.00
13968;BME280;39536;52.198;9.920;2023-01-29T00:11:30;101969.69;;;0.46;100.00
13968;BME280;39536;52.198;9.920;2023-01-29T00:13:56;101960.63;;;0.56;100.00
13968;BME280;39536;52.198;9.920;2023-01-29T00:16:23;101959.63;;;0.53;100.00
13968;BME280;39536;52.198;9.920;2023-01-29T00:18:50;101959.97;;;0.63;100.00
13968;BME280;39536;52.198;9.920;2023-01-29T00:21:18;101964.47;;;0.71;100.00
13968;BME280;39536;52.198;9.920;2023-01-29T00:23:47;101955.22;;;0.76;100.00
13968;BME280;39536;52.198;9.920;2023-01-29T00:26:14;101960.00;;;0.65;100.00
13968;BME280;39536;52.198;9.920;2023-01-29T00:28:41;101960.00;;;0.65;100.00
13968;BME280;39536;52.198;9.920;2023-01-29T00:31:09;101952.31;;;0.65;100.00
13968;BME280;39536;52.198;9.920;2023-01-29T00:33:35;101950.56;;;0.62;100.00
13968;BME280;39536;52.198;9.920;2023-01-29T00:36:03;101950.50;;;0.61;100.00
13968;BME280;39536;52.198;9.920;2023-01-29T00:38:31;101955.50;;;0.56;100.00
13968;BME280;39536;52.198;9.920;2023-01-29T00:41:04;101960.13;;;0.41;100.00
13968;BME280;39536;52.198;9.920;2023-01-29T00:43:48;101963.41;;;0.37;100.00
13968;BME280;39536;52.198;9.920;2023-01-29T00:46:32;101955.91;;;0.43;100.00
13968;BME280;39536;52.198;9.920;2023-01-29T00:48:58;101952.78;;;0.52;100.00
13968;BME280;39536;52.198;9.920;2023-01-29T00:51:25;101947.34;;;0.42;100.00
13968;BME280;39536;52.198;9.920;2023-01-29T00:53:51;101949.16;;;0.45;100.00
13968;BME280;39536;52.198;9.920;2023-01-29T00:56:20;101956.19;;;0.52;100.00
13968;BME280;39536;52.198;9.920;2023-01-29T00:58:46;101950.47;;;0.59;100.00
13968;BME280;39536;52.198;9.920;2023-01-29T01:01:12;101952.94;;;0.56;100.00
13968;BME280;39536;52.198;9.920;2023-01-29T01:03:39;101953.03;;;0.59;100.00
13968;BME280;39536;52.198;9.920;2023-01-29T01:06:11;101959.06;;;0.61;100.00
13968;BME280;39536;52.198;9.920;2023-01-29T01:08:37;101950.81;;;0.72;100.00
13968;BME280;39536;52.198;9.920;2023-01-29T01:11:23;101952.59;;;0.74;100.00
13968;BME280;39536;52.198;9.920;2023-01-29T01:13:49;101958.34;;;0.65;100.00
13968;BME280;39536;52.198;9.920;2023-01-29T01:16:16;101964.47;;;0.71;100.00
13968;BME280;39536;52.198;9.920;2023-01-29T01:18:44;101965.34;;;0.71;100.00
13968;BME280;39536;52.198;9.920;2023-01-29T01:21:11;101957.72;;;0.73;100.00
13968;BME280;39536;52.198;9.920;2023-01-29T01:23:37;101954.31;;;0.74;100.00
13968;BME280;39536;52.198;9.920;2023-01-29T01:26:07;101948.16;;;0.68;100.00
13968;BME280;39536;52.198;9.920;2023-01-29T01:28:36;101942.03;;;0.63;100.00
13968;BME280;39536;52.198;9.920;2023-01-29T01:31:07;101944.06;;;0.46;100.00
13968;BME280;39536;52.198;9.920;2023-01-29T01:33:34;101939.22;;;0.56;100.00
13968;BME280;39536;52.198;9.920;2023-01-29T01:36:01;101936.81;;;0.60;100.00
13968;BME280;39536;52.198;9.920;2023-01-29T01:38:28;101933.09;;;0.51;100.00
13968;BME280;39536;52.198;9.920;2023-01-29T01:40:55;101929.56;;;0.47;100.00
13968;BME280;39536;52.198;9.920;2023-01-29T01:43:21;101918.53;;;0.50;100.00
13968;BME280;39536;52.198;9.920;2023-01-29T01:45:49;101915.06;;;0.48;100.00
13968;BME280;39536;52.198;9.920;2023-01-29T01:48:18;101902.94;;;0.43;100.00
13968;BME280;39536;52.198;9.920;2023-01-29T01:50:48;101913.81;;;0.35;100.00
13968;BME280;39536;52.198;9.920;2023-01-29T01:53:20;101914.63;;;0.34;100.00
13968;BME280;39536;52.198;9.920;2023-01-29T01:55:50;101915.63;;;0.39;100.00
13968;BME280;39536;52.198;9.920;2023-01-29T01:58:21;101911.28;;;0.36;100.00
13968;BME280;39536;52.198;9.920;2023-01-29T02:00:50;101909.78;;;0.43;100.00
13968;BME280;39536;52.198;9.920;2023-01-29T02:03:18;101912.16;;;0.37;100.00
13968;BME280;39536;52.198;9.920;2023-01-29T02:06:05;101902.81;;;0.39;100.00
13968;BME280;39536;52.198;9.920;2023-01-29T02:08:53;101899.31;;;0.35;100.00
13968;BME280;39536;52.198;9.920;2023-01-29T02:11:39;101916.13;;;0.27;100.00
13968;BME280;39536;52.198;9.920;2023-01-29T02:14:06;101918.66;;;0.26;100.00
13968;BME280;39536;52.198;9.920;2023-01-29T02:16:35;101917.91;;;0.30;100.00
13968;BME280;39536;52.198;9.920;2023-01-29T02:19:03;101920.56;;;0.33;100.00
13968;BME280;39536;52.198;9.920;2023-01-29T02:21:49;101923.03;;;0.30;100.00
13968;BME280;39536;52.198;9.920;2023-01-29T02:24:36;101925.59;;;0.30;100.00
13968;BME280;39536;52.198;9.920;2023-01-29T02:27:11;101927.84;;;0.19;100.00
13968;BME280;39536;52.198;9.920;2023-01-29T02:29:51;101934.81;;;0.25;100.00
13968;BME280;39536;52.198;9.920;2023-01-29T02:32:24;101929.38;;;0.14;100.00
13968;BME280;39536;52.198;9.920;2023-01-29T02:35:05;101929.38;;;0.14;100.00
13968;BME280;39536;52.198;9.920;2023-01-29T02:38:00;101938.97;;;0.21;100.00
13968;BME280;39536;52.198;9.920;2023-01-29T02:40:30;101946.00;;;0.27;100.00
13968;BME280;39536;52.198;9.920;2023-01-29T02:43:03;101945.25;;;0.31;100.00
13968;BME280;39536;52.198;9.920;2023-01-29T02:45:41;101948.47;;;0.23;100.00
13968;BME280;39536;52.198;9.920;2023-01-29T02:48:12;101945.03;;;0.23;100.00
13968;BME280;39536;52.198;9.920;2023-01-29T02:50:42;101949.03;;;0.15;100.00
13968;BME280;39536;52.198;9.920;2023-01-29T02:53:14;101942.22;;;0.15;100.00
13968;BME280;39536;52.198;9.920;2023-01-29T02:55:43;101950.06;;;0.20;100.00
13968;BME280;39536;52.198;9.920;2023-01-29T02:58:16;101956.06;;;0.20;100.00
13968;BME280;39536;52.198;9.920;2023-01-29T03:00:47;101946.88;;;0.02;100.00
13968;BME280;39536;52.198;9.920;2023-01-29T03:03:17;101949.41;;;0.00;100.00
13968;BME280;39536;52.198;9.920;2023-01-29T03:05:50;101952.44;;;-0.12;100.00
13968;BME280;39536;52.198;9.920;2023-01-29T03:08:27;101940.28;;;-0.17;100.00
13968;BME280;39536;52.198;9.920;2023-01-29T03:11:03;101935.59;;;-0.29;100.00
13968;BME280;39536;52.198;9.920;2023-01-29T03:13:34;101936.00;;;-0.18;100.00
13968;BME280;39536;52.198;9.920;2023-01-29T03:16:08;101938.59;;;-0.17;100.00
13968;BME280;39536;52.198;9.920;2023-01-29T03:18:39;101931.88;;;-0.13;100.00
13968;BME280;39536;52.198;9.920;2023-01-29T03:21:13;101922.97;;;-0.25;100.00
13968;BME280;39536;52.198;9.920;2023-01-29T03:23:59;101926.50;;;-0.21;100.00
13968;BME280;39536;52.198;9.920;2023-01-29T03:26:43;101924.09;;;-0.16;100.00
13968;BME280;39536;52.198;9.920;2023-01-29T03:29:29;101915.00;;;-0.34;100.00
13968;BME280;39536;52.198;9.920;2023-01-29T03:32:17;101909.06;;;-0.31;100.00
13968;BME280;39536;52.198;9.920;2023-01-29T03:34:47;101912.66;;;-0.26;100.00
13968;BME280;39536;52.198;9.920;2023-01-29T03:37:20;101916.84;;;-0.28;100.00
13968;BME280;39536;52.198;9.920;2023-01-29T03:39:49;101925.75;;;-0.18;100.00
13968;BME280;39536;52.198;9.920;2023-01-29T03:42:20;101925.13;;;-0.11;100.00
13968;BME280;39536;52.198;9.920;2023-01-29T03:44:54;101920.88;;;-0.11;100.00
13968;BME280;39536;52.198;9.920;2023-01-29T03:47:27;101915.81;;;-0.09;100.00
13968;BME280;39536;52.198;9.920;2023-01-29T03:49:59;101915.59;;;-0.15;100.00
13968;BME280;39536;52.198;9.920;2023-01-29T03:52:36;101910.06;;;-0.02;100.00
13968;BME280;39536;52.198;9.920;2023-01-29T03:55:12;101914.16;;;-0.07;100.00
13968;BME280;39536;52.198;9.920;2023-01-29T03:57:43;101912.97;;;-0.17;100.00
13968;BME280;39536;52.198;9.920;2023-01-29T04:00:14;101902.31;;;-0.04;100.00
13968;BME280;39536;52.198;9.920;2023-01-29T04:02:48;101895.38;;;-0.08;100.00
13968;BME280;39536;52.198;9.920;2023-01-29T04:05:19;101898.75;;;-0.09;100.00
13968;BME280;39536;52.198;9.920;2023-01-29T04:07:47;101892.69;;;-0.11;100.00
13968;BME280;39536;52.198;9.920;2023-01-29T04:10:20;101885.22;;;-0.05;100.00
13968;BME280;39536;52.198;9.920;2023-01-29T04:12:51;101894.03;;;0.04;100.00
13968;BME280;39536;52.198;9.920;2023-01-29T04:15:21;101880.53;;;0.09;100.00
13968;BME280;39536;52.198;9.920;2023-01-29T04:17:51;101877.34;;;0.16;100.00
13968;BME280;39536;52.198;9.920;2023-01-29T04:20:19;101853.38;;;0.14;100.00
13968;BME280;39536;52.198;9.920;2023-01-29T04:22:47;101856.69;;;0.12;100.00
13968;BME280;39536;52.198;9.920;2023-01-29T04:25:15;101855.81;;;0.10;100.00
13968;BME280;39536;52.198;9.920;2023-01-29T04:27:45;101846.63;;;0.16;100.00
13968;BME280;39536;52.198;9.920;2023-01-29T04:30:22;101851.44;;;0.07;100.00
13968;BME280;39536;52.198;9.920;2023-01-29T04:33:03;101854.81;;;0.06;100.00
13968;BME280;39536;52.198;9.920;2023-01-29T04:35:35;101852.34;;;0.09;100.00
13968;BME280;39536;52.198;9.920;2023-01-29T04:38:11;101844.84;;;0.15;100.00
13968;BME280;39536;52.198;9.920;2023-01-29T04:40:49;101838.19;;;0.20;100.00
13968;BME280;39536;52.198;9.920;2023-01-29T04:43:21;101827.34;;;0.29;100.00
13968;BME280;39536;52.198;9.920;2023-01-29T04:46:02;101823.94;;;0.29;100.00
13968;BME280;39536;52.198;9.920;2023-01-29T04:48:44;101811.75;;;0.21;100.00
13968;BME280;39536;52.198;9.920;2023-01-29T04:51:16;101810.25;;;0.28;100.00
13968;BME280;39536;52.198;9.920;2023-01-29T04:53:48;101802.47;;;0.25;100.00
13968;BME280;39536;52.198;9.920;2023-01-29T04:56:20;101798.13;;;0.22;100.00
13968;BME280;39536;52.198;9.920;2023-01-29T04:58:51;101799.13;;;0.28;100.00
13968;BME280;39536;52.198;9.920;2023-01-29T05:01:23;101799.94;;;0.27;100.00
13968;BME280;39536;52.198;9.920;2023-01-29T05:03:55;101798.41;;;0.32;100.00
13968;BME280;39536;52.198;9.920;2023-01-29T05:06:23;101810.38;;;0.33;100.00
13968;BME280;39536;52.198;9.920;2023-01-29T05:08:50;101805.03;;;0.25;100.00
13968;BME280;39536;52.198;9.920;2023-01-29T05:11:17;101804.78;;;0.17;100.00
13968;BME280;39536;52.198;9.920;2023-01-29T05:13:46;101805.34;;;0.07;100.00
13968;BME280;39536;52.198;9.920;2023-01-29T05:16:15;101798.91;;;0.20;100.00
13968;BME280;39536;52.198;9.920;2023-01-29T05:18:45;101805.22;;;0.31;100.00
13968;BME280;39536;52.198;9.920;2023-01-29T05:21:13;101806.75;;;0.26;100.00
13968;BME280;39536;52.198;9.920;2023-01-29T05:23:39;101810.09;;;0.23;100.00
13968;BME280;39536;52.198;9.920;2023-01-29T05:26:23;101816.25;;;0.29;100.00
13968;BME280;39536;52.198;9.920;2023-01-29T05:29:07;101812.81;;;0.28;100.00
13968;BME280;39536;52.198;9.920;2023-01-29T05:31:33;101806.31;;;0.39;100.00
13968;BME280;39536;52.198;9.920;2023-01-29T05:34:00;101808.78;;;0.36;100.00
13968;BME280;39536;52.198;9.920;2023-01-29T05:36:27;101806.28;;;0.38;100.00
13968;BME280;39536;52.198;9.920;2023-01-29T05:38:54;101806.84;;;0.29;100.00
13968;BME280;39536;52.198;9.920;2023-01-29T05:41:21;101808.94;;;0.41;100.00
13968;BME280;39536;52.198;9.920;2023-01-29T05:43:47;101813.34;;;0.46;100.00
13968;BME280;39536;52.198;9.920;2023-01-29T05:46:14;101814.00;;;0.39;100.00
13968;BME280;39536;52.198;9.920;2023-01-29T05:48:40;101824.25;;;0.39;100.00
13968;BME280;39536;52.198;9.920;2023-01-29T05:51:06;101821.00;;;0.45;100.00
13968;BME280;39536;52.198;9.920;2023-01-29T05:53:34;101820.25;;;0.49;100.00
13968;BME280;39536;52.198;9.920;2023-01-29T05:56:02;101817.84;;;0.54;100.00
13968;BME280;39536;52.198;9.920;2023-01-29T05:58:29;101815.13;;;0.49;100.00
13968;BME280;39536;52.198;9.920;2023-01-29T06:00:56;101821.94;;;0.49;100.00
13968;BME280;39536;52.198;9.920;2023-01-29T06:03:22;101823.47;;;0.42;100.00
13968;BME280;39536;52.198;9.920;2023-01-29T06:05:48;101834.81;;;0.50;100.00
13968;BME280;39536;52.198;9.920;2023-01-29T06:08:15;101833.34;;;0.30;100.00
13968;BME280;39536;52.198;9.920;2023-01-29T06:10:42;101836.84;;;0.32;100.00
13968;BME280;39536;52.198;9.920;2023-01-29T06:13:09;101845.47;;;0.35;100.00
13968;BME280;39536;52.198;9.920;2023-01-29T06:15:38;101843.00;;;0.38;100.00
13968;BME280;39536;52.198;9.920;2023-01-29T06:18:04;101832.09;;;0.44;100.00
13968;BME280;39536;52.198;9.920;2023-01-29T06:20:31;101847.56;;;0.47;100.00
13968;BME280;39536;52.198;9.920;2023-01-29T06:22:57;101840.72;;;0.48;100.00
13968;BME280;39536;52.198;9.920;2023-01-29T06:25:24;101839.63;;;0.39;100.00
13968;BME280;39536;52.198;9.920;2023-01-29T06:27:51;101848.44;;;0.49;100.00
13968;BME280;39536;52.198;9.920;2023-01-29T06:30:18;101830.59;;;0.52;100.00
13968;BME280;39536;52.198;9.920;2023-01-29T06:32:44;101822.91;;;0.52;100.00
13968;BME280;39536;52.198;9.920;2023-01-29T06:35:11;101822.63;;;0.43;100.00
13968;BME280;39536;52.198;9.920;2023-01-29T06:37:37;101824.50;;;0.49;100.00
13968;BME280;39536;52.198;9.920;2023-01-29T06:40:05;101827.03;;;0.47;100.00
13968;BME280;39536;52.198;9.920;2023-01-29T06:42:33;101819.66;;;0.58;100.00
13968;BME280;39536;52.198;9.920;2023-01-29T06:45:01;101828.13;;;0.55;100.00
13968;BME280;39536;52.198;9.920;2023-01-29T06:47:28;101836.22;;;0.40;100.00
13968;BME280;39536;52.198;9.920;2023-01-29T06:49:54;101824.16;;;0.36;100.00
13968;BME280;39536;52.198;9.920;2023-01-29T06:52:21;101834.38;;;0.35;100.00
13968;BME280;39536;52.198;9.920;2023-01-29T06:54:47;101838.38;;;0.27;100.00
13968;BME280;39536;52.198;9.920;2023-01-29T06:57:13;101833.53;;;0.36;100.00
13968;BME280;39536;52.198;9.920;2023-01-29T06:59:40;101828.34;;;0.34;100.00
13968;BME280;39536;52.198;9.920;2023-01-29T07:02:08;101819.00;;;0.35;100.00
13968;BME280;39536;52.198;9.920;2023-01-29T07:04:34;101825.34;;;0.48;100.00
13968;BME280;39536;52.198;9.920;2023-01-29T07:07:02;101845.75;;;0.44;100.00
13968;BME280;39536;52.198;9.920;2023-01-29T07:09:28;101858.50;;;0.43;100.00
13968;BME280;39536;52.198;9.920;2023-01-29T07:11:54;101851.41;;;0.34;100.00
13968;BME280;39536;52.198;9.920;2023-01-29T07:14:21;101843.69;;;0.33;100.00
13968;BME280;39536;52.198;9.920;2023-01-29T07:16:47;101858.28;;;0.35;100.00
13968;BME280;39536;52.198;9.920;2023-01-29T07:19:15;101869.44;;;0.37;100.00
13968;BME280;39536;52.198;9.920;2023-01-29T07:21:42;101871.09;;;0.35;100.00
13968;BME280;39536;52.198;9.920;2023-01-29T07:24:08;101854.13;;;0.39;100.00
13968;BME280;39536;52.198;9.920;2023-01-29T07:26:34;101867.59;;;0.32;100.00
13968;BME280;39536;52.198;9.920;2023-01-29T07:29:01;101868.19;;;0.25;100.00
13968;BME280;39536;52.198;9.920;2023-01-29T07:31:29;101863.41;;;0.35;100.00
13968;BME280;39536;52.198;9.920;2023-01-29T07:33:56;101869.88;;;0.22;100.00
13968;BME280;39536;52.198;9.920;2023-01-29T07:36:23;101848.44;;;0.20;100.00
13968;BME280;39536;52.198;9.920;2023-01-29T07:38:51;101850.06;;;0.18;100.00
13968;BME280;39536;52.198;9.920;2023-01-29T07:41:18;101850.31;;;0.26;100.00
13968;BME280;39536;52.198;9.920;2023-01-29T07:43:44;101849.28;;;0.19;100.00
13968;BME280;39536;52.198;9.920;2023-01-29T07:46:11;101820.34;;;0.23;100.00
13968;BME280;39536;52.198;9.920;2023-01-29T07:48:37;101820.41;;;0.25;100.00
13968;BME280;39536;52.198;9.920;2023-01-29T07:51:04;101824.81;;;0.31;100.00
13968;BME280;39536;52.198;9.920;2023-01-29T07:53:32;101820.50;;;0.28;100.00
13968;BME280;39536;52.198;9.920;2023-01-29T07:55:59;101825.56;;;0.27;100.00
13968;BME280;39536;52.198;9.920;2023-01-29T07:58:26;101816.16;;;0.26;100.00
13968;BME280;39536;52.198;9.920;2023-01-29T08:00:52;101825.72;;;0.31;100.00
13968;BME280;39536;52.198;9.920;2023-01-29T08:03:19;101817.97;;;0.30;100.00
13968;BME280;39536;52.198;9.920;2023-01-29T08:05:45;101802.69;;;0.33;100.00
13968;BME280;39536;52.198;9.920;2023-01-29T08:08:12;101785.59;;;0.32;100.00
13968;BME280;39536;52.198;9.920;2023-01-29T08:10:41;101771.75;;;0.27;100.00
13968;BME280;39536;52.198;9.920;2023-01-29T08:13:08;101770.22;;;0.32;100.00
13968;BME280;39536;52.198;9.920;2023-01-29T08:15:35;101777.91;;;0.32;100.00
13968;BME280;39536;52.198;9.920;2023-01-29T08:18:02;101784.09;;;0.40;100.00
13968;BME280;39536;52.198;9.920;2023-01-29T08:20:29;101779.31;;;0.52;100.00
13968;BME280;39536;52.198;9.920;2023-01-29T08:23:00;101780.59;;;0.36;100.00
13968;BME280;39536;52.198;9.920;2023-01-29T08:25:27;101787.78;;;0.50;100.00
13968;BME280;39536;52.198;9.920;2023-01-29T08:27:55;101797.53;;;0.61;100.00
13968;BME280;39536;52.198;9.920;2023-01-29T08:30:23;101785.56;;;0.60;100.00
13968;BME280;39536;52.198;9.920;2023-01-29T08:32:50;101786.47;;;0.62;100.00
13968;BME280;39536;52.198;9.920;2023-01-29T08:35:17;101784.72;;;0.61;100.00
13968;BME280;39536;52.198;9.920;2023-01-29T08:37:43;101787.38;;;0.64;100.00
13968;BME280;39536;52.198;9.920;2023-01-29T08:40:10;101785.72;;;0.66;100.00
13968;BME280;39536;52.198;9.920;2023-01-29T08:42:37;101782.13;;;0.60;100.00
13968;BME280;39536;52.198;9.920;2023-01-29T08:45:08;101783.84;;;0.61;100.00
13968;BME280;39536;52.198;9.920;2023-01-29T08:47:34;101776.41;;;0.70;100.00
13968;BME280;39536;52.198;9.920;2023-01-29T08:50:01;101789.84;;;0.61;100.00
13968;BME280;39536;52.198;9.920;2023-01-29T08:52:27;101785.91;;;0.73;100.00
13968;BME280;39536;52.198;9.920;2023-01-29T08:54:54;101785.97;;;0.76;100.00
13968;BME280;39536;52.198;9.920;2023-01-29T08:57:20;101784.22;;;0.75;100.00
13968;BME280;39536;52.198;9.920;2023-01-29T08:59:46;101781.56;;;0.72;100.00
13968;BME280;39536;52.198;9.920;2023-01-29T09:02:14;101774.53;;;0.64;100.00
13968;BME280;39536;52.198;9.920;2023-01-29T09:04:40;101783.09;;;0.65;100.00
13968;BME280;39536;52.198;9.920;2023-01-29T09:07:07;101789.84;;;0.61;100.00
13968;BME280;39536;52.198;9.920;2023-01-29T09:09:33;101785.94;;;0.74;100.00
13968;BME280;39536;52.198;9.920;2023-01-29T09:12:00;101783.75;;;0.56;100.00
13968;BME280;39536;52.198;9.920;2023-01-29T09:14:26;101771.88;;;0.60;100.00
13968;BME280;39536;52.198;9.920;2023-01-29T09:16:52;101765.78;;;0.56;100.00
13968;BME280;39536;52.198;9.920;2023-01-29T09:19:20;101764.69;;;0.48;100.00
13968;BME280;39536;52.198;9.920;2023-01-29T09:21:46;101765.53;;;0.47;100.00
13968;BME280;39536;52.198;9.920;2023-01-29T09:24:13;101769.22;;;0.57;100.00
13968;BME280;39536;52.198;9.920;2023-01-29T09:26:40;101755.75;;;0.64;100.00
13968;BME280;39536;52.198;9.920;2023-01-29T09:29:08;101756.31;;;0.54;100.00
13968;BME280;39536;52.198;9.920;2023-01-29T09:31:35;101741.97;;;0.60;100.00
13968;BME280;39536;52.198;9.920;2023-01-29T09:34:02;101741.38;;;0.71;100.00
13968;BME280;39536;52.198;9.920;2023-01-29T09:36:29;101737.03;;;0.68;100.00
13968;BME280;39536;52.198;9.920;2023-01-29T09:38:56;101729.25;;;0.65;100.00
13968;BME280;39536;52.198;9.920;2023-01-29T09:41:32;101724.13;;;0.65;100.00
13968;BME280;39536;52.198;9.920;2023-01-29T09:44:11;101718.19;;;0.66;100.00
13968;BME280;39536;52.198;9.920;2023-01-29T09:46:42;101728.72;;;0.75;100.00
13968;BME280;39536;52.198;9.920;2023-01-29T09:49:14;101725.22;;;0.73;100.00
13968;BME280;39536;52.198;9.920;2023-01-29T09:51:46;101729.66;;;0.80;100.00
13968;BME280;39536;52.198;9.920;2023-01-29T09:54:17;101717.53;;;0.73;100.00
13968;BME280;39536;52.198;9.920;2023-01-29T09:56:45;101720.84;;;0.69;100.00
13968;BME280;39536;52.198;9.920;2023-01-29T09:59:15;101714.97;;;0.75;100.00
13968;BME280;39536;52.198;9.920;2023-01-29T10:01:52;101706.03;;;0.92;100.00
13968;BME280;39536;52.198;9.920;2023-01-29T10:04:51;101711.19;;;0.92;100.00
13968;BME280;39536;52.198;9.920;2023-01-29T10:07:50;101700.22;;;0.98;100.00
13968;BME280;39536;52.198;9.920;2023-01-29T10:10:34;101693.38;;;0.98;100.00
13968;BME280;39536;52.198;9.920;2023-01-29T10:13:12;101688.94;;;0.91;100.00
13968;BME280;39536;52.198;9.920;2023-01-29T10:15:57;101696.03;;;1.01;100.00
13968;BME280;39536;52.198;9.920;2023-01-29T10:18:42;101687.72;;;1.11;100.00
13968;BME280;39536;52.198;9.920;2023-01-29T10:21:27;101700.53;;;1.11;100.00
13968;BME280;39536;52.198;9.920;2023-01-29T10:24:02;101699.59;;;1.06;100.00
13968;BME280;39536;52.198;9.920;2023-01-29T10:26:32;101697.09;;;1.09;100.00
13968;BME280;39536;52.198;9.920;2023-01-29T10:29:04;101697.47;;;1.25;100.00
13968;BME280;39536;52.198;9.920;2023-01-29T10:31:32;101698.22;;;1.21;100.00
13968;BME280;39536;52.198;9.920;2023-01-29T10:34:09;101689.72;;;1.23;100.00
13968;BME280;39536;52.198;9.920;2023-01-29T10:36:41;101695.06;;;1.31;100.00
13968;BME280;39536;52.198;9.920;2023-01-29T10:39:14;101692.44;;;1.29;100.00
13968;BME280;39536;52.198;9.920;2023-01-29T10:41:58;101690.72;;;1.28;100.00
13968;BME280;39536;52.198;9.920;2023-01-29T10:44:36;101695.16;;;1.37;100.00
13968;BME280;39536;52.198;9.920;2023-01-29T10:47:23;101705.50;;;1.38;100.00
13968;BME280;39536;52.198;9.920;2023-01-29T10:50:04;101706.97;;;1.29;100.00
13968;BME280;39536;52.198;9.920;2023-01-29T10:52:46;101702.47;;;1.19;100.00
13968;BME280;39536;52.198;9.920;2023-01-29T10:55:30;101694.13;;;1.29;100.00
13968;BME280;39536;52.198;9.920;2023-01-29T10:58:06;101686.31;;;1.24;100.00
13968;BME280;39536;52.198;9.920;2023-01-29T11:00:37;101680.53;;;1.33;100.00
13968;BME280;39536;52.198;9.920;2023-01-29T11:03:13;101675.25;;;1.25;100.00
13968;BME280;39536;52.198;9.920;2023-01-29T11:05:43;101666.81;;;1.31;100.00
13968;BME280;39536;52.198;9.920;2023-01-29T11:08:15;101660.94;;;1.36;100.00
13968;BME280;39536;52.198;9.920;2023-01-29T11:10:50;101652.38;;;1.36;100.00
13968;BME280;39536;52.198;9.920;2023-01-29T11:13:21;101643.09;;;1.41;100.00
13968;BME280;39536;52.198;9.920;2023-01-29T11:15:51;101643.03;;;1.39;100.00
13968;BME280;39536;52.198;9.920;2023-01-29T11:18:18;101644.78;;;1.41;100.00
13968;BME280;39536;52.198;9.920;2023-01-29T11:20:45;101639.72;;;1.44;100.00
13968;BME280;39536;52.198;9.920;2023-01-29T11:23:24;101629.59;;;1.50;100.00
13968;BME280;39536;52.198;9.920;2023-01-29T11:25:54;101622.69;;;1.47;100.00
13968;BME280;39536;52.198;9.920;2023-01-29T11:28:36;101623.44;;;1.43;100.00
13968;BME280;39536;52.198;9.920;2023-01-29T11:31:02;101618.56;;;1.54;100.00
13968;BME280;39536;52.198;9.920;2023-01-29T11:33:29;101616.06;;;1.58;100.00
13968;BME280;39536;52.198;9.920;2023-01-29T11:35:56;101614.47;;;1.64;100.00
13968;BME280;39536;52.198;9.920;2023-01-29T11:38:25;101606.78;;;1.64;100.00
13968;BME280;39536;52.198;9.920;2023-01-29T11:41:03;101608.50;;;1.65;100.00
13968;BME280;39536;52.198;9.920;2023-01-29T11:43:30;101614.25;;;1.53;100.00
13968;BME280;39536;52.198;9.920;2023-01-29T11:46:00;101603.94;;;1.51;100.00
13968;BME280;39536;52.198;9.920;2023-01-29T11:48:32;101599.78;;;1.56;100.00
13968;BME280;39536;52.198;9.920;2023-01-29T11:51:04;101612.38;;;1.46;100.00
13968;BME280;39536;52.198;9.920;2023-01-29T11:53:36;101596.25;;;1.51;100.00
13968;BME280;39536;52.198;9.920;2023-01-29T11:56:15;101593.81;;;1.57;100.00
13968;BME280;39536;52.198;9.920;2023-01-29T11:58:42;101593.00;;;1.60;100.00
13968;BME280;39536;52.198;9.920;2023-01-29T12:01:10;101587.28;;;1.72;100.00
13968;BME280;39536;52.198;9.920;2023-01-29T12:03:42;101588.88;;;1.67;100.00
13968;BME280;39536;52.198;9.920;2023-01-29T12:06:17;101581.09;;;1.64;100.00
13968;BME280;39536;52.198;9.920;2023-01-29T12:08:53;101575.28;;;1.72;100.00
13968;BME280;39536;52.198;9.920;2023-01-29T12:11:28;101575.22;;;1.69;100.00
13968;BME280;39536;52.198;9.920;2023-01-29T12:13:56;101569.84;;;1.58;100.00
13968;BME280;39536;52.198;9.920;2023-01-29T12:16:27;101562.34;;;1.68;100.00
13968;BME280;39536;52.198;9.920;2023-01-29T12:19:03;101556.34;;;1.67;100.00
13968;BME280;39536;52.198;9.920;2023-01-29T12:21:34;101546.38;;;1.81;100.00
13968;BME280;39536;52.198;9.920;2023-01-29T12:24:11;101529.88;;;1.70;100.00
13968;BME280;39536;52.198;9.920;2023-01-29T12:26:48;101545.47;;;1.80;100.00
13968;BME280;39536;52.198;9.920;2023-01-29T12:29:24;101544.09;;;1.98;100.00
13968;BME280;39536;52.198;9.920;2023-01-29T12:32:00;101539.72;;;1.92;100.00
13968;BME280;39536;52.198;9.920;2023-01-29T12:34:35;101531.28;;;1.99;100.00
13968;BME280;39536;52.198;9.920;2023-01-29T12:39:35;101528.63;;;1.93;100.00
13968;BME280;39536;52.198;9.920;2023-01-29T12:42:08;101536.97;;;1.83;100.00
13968;BME280;39536;52.198;9.920;2023-01-29T12:44:38;101547.97;;;1.76;100.00
13968;BME280;39536;52.198;9.920;2023-01-29T12:47:13;101533.63;;;1.87;100.00
13968;BME280;39536;52.198;9.920;2023-01-29T12:49:42;101546.50;;;1.89;100.00
13968;BME280;39536;52.198;9.920;2023-01-29T12:52:15;101535.50;;;1.96;100.00
13968;BME280;39536;52.198;9.920;2023-01-29T12:54:47;101532.72;;;1.85;100.00
13968;BME280;39536;52.198;9.920;2023-01-29T12:57:22;101532.69;;;1.83;100.00
13968;BME280;39536;52.198;9.920;2023-01-29T12:59:52;101537.88;;;1.87;100.00
13968;BME280;39536;52.198;9.920;2023-01-29T13:02:31;101545.56;;;1.85;100.00
13968;BME280;39536;52.198;9.920;2023-01-29T13:05:03;101534.38;;;1.81;100.00
13968;BME280;39536;52.198;9.920;2023-01-29T13:07:36;101527.59;;;1.85;100.00
13968;BME280;39536;52.198;9.920;2023-01-29T13:10:10;101539.47;;;1.80;100.00
13968;BME280;39536;52.198;9.920;2023-01-29T13:12:48;101522.34;;;1.79;100.00